Time;durP1;ratioP1;P1;durP2;ratioP2;P2;SDS_P1;SDS_P2;PMS_P1;PMS_P2;Temp;Humidity;BMP_temperature;BMP_pressure;BME280_temperature;BME280_humidity;BME280_pressure;Samples;Min_cycle;Max_cycle;Signal;HPM_P1;HPM_P2
2021/06/03 00:02:00;;;;;;;5.25;2.40;;;;;;;7.51;87.98;93678.00;1779231;80;21034;-83
2021/06/03 00:04:27;;;;;;;4.92;2.50;;;;;;;7.57;87.82;93679.23;1778195;80;21018;-83
2021/06/03 00:06:54;;;;;;;3.55;2.92;;;;;;;7.63;87.62;93679.09;1778789;80;20979;-83
2021/06/03 00:09:20;;;;;;;5.10;2.90;;;;;;;7.62;87.52;93674.84;1779278;80;21081;-83
2021/06/03 00:11:48;;;;;;;7.37;4.10;;;;;;;7.58;87.54;93676.73;1779215;80;20979;-83
2021/06/03 00:14:17;;;;;;;5.08;3.20;;;;;;;7.56;87.79;93676.33;1779472;80;21012;-83
2021/06/03 00:16:44;;;;;;;6.55;4.78;;;;;;;7.58;87.73;93683.49;1779203;80;21501;-83
2021/06/03 00:19:11;;;;;;;12.37;6.95;;;;;;;7.59;87.63;93684.27;1779146;78;20991;-84
2021/06/03 00:21:38;;;;;;;12.45;6.42;;;;;;;7.58;87.72;93684.84;1779132;80;21033;-83
2021/06/03 00:24:05;;;;;;;10.08;6.08;;;;;;;7.62;87.70;93689.72;1779617;80;22128;-83
2021/06/03 00:26:34;;;;;;;17.00;7.45;;;;;;;7.66;87.62;93689.19;1778912;80;21118;-83
2021/06/03 00:29:01;;;;;;;9.33;5.33;;;;;;;7.70;87.42;93690.58;1779117;80;21579;-84
2021/06/03 00:31:27;;;;;;;8.00;4.55;;;;;;;7.70;87.21;93689.23;1778650;80;21039;-83
2021/06/03 00:33:55;;;;;;;8.40;5.75;;;;;;;7.67;87.20;93685.35;1779431;79;21015;-83
2021/06/03 00:36:21;;;;;;;6.78;5.50;;;;;;;7.67;87.31;93689.41;1778564;79;21767;-83
2021/06/03 00:38:49;;;;;;;8.43;5.08;;;;;;;7.67;87.25;93692.13;1778346;79;21014;-83
2021/06/03 00:41:17;;;;;;;7.10;5.42;;;;;;;7.66;87.31;93689.19;1778541;80;21029;-83
2021/06/03 00:43:44;;;;;;;11.10;5.62;;;;;;;7.64;87.31;93684.73;1777989;79;21058;-83
2021/06/03 00:46:11;;;;;;;14.53;8.55;;;;;;;7.59;87.44;93681.56;1778104;80;21532;-83
2021/06/03 00:48:39;;;;;;;16.90;9.60;;;;;;;7.56;87.51;93681.75;1779266;80;21014;-83
2021/06/03 00:51:08;;;;;;;18.30;8.78;;;;;;;7.57;87.59;93683.88;1779189;80;21010;-83
2021/06/03 00:53:37;;;;;;;15.63;7.97;;;;;;;7.51;87.51;93685.53;1778594;80;21248;-83
2021/06/03 00:56:05;;;;;;;7.03;4.42;;;;;;;7.41;87.80;93688.91;1779573;80;20992;-83
2021/06/03 00:58:34;;;;;;;4.35;3.15;;;;;;;7.27;88.20;93686.80;1779008;79;21086;-82
2021/06/03 01:01:01;;;;;;;3.27;2.75;;;;;;;7.17;88.60;93689.36;1779024;80;21128;-83
2021/06/03 01:03:28;;;;;;;2.87;2.30;;;;;;;7.12;88.93;93688.34;1779419;80;21545;-82
2021/06/03 01:06:02;;;;;;;14.73;6.28;;;;;;;7.10;89.36;93682.51;1779123;80;20983;-83
2021/06/03 01:08:58;;;;;;;10.53;5.33;;;;;;;7.16;89.31;93669.66;1779131;80;26501;-82
2021/06/03 01:11:31;;;;;;;21.60;8.55;;;;;;;7.22;89.15;93678.21;1778750;80;21054;-83
2021/06/03 01:14:20;;;;;;;8.68;3.72;;;;;;;7.27;88.96;93679.27;1747721;81;22814;-83
2021/06/03 01:16:48;;;;;;;6.95;3.45;;;;;;;7.27;88.74;93676.56;1766378;81;21094;-84
2021/06/03 01:19:28;;;;;;;4.08;2.70;;;;;;;7.20;88.85;93673.19;1744912;80;21030;-84
2021/06/03 01:22:04;;;;;;;2.83;2.22;;;;;;;7.21;88.84;93678.02;1746740;80;21083;-84
2021/06/03 01:24:38;;;;;;;7.03;2.90;;;;;;;7.16;88.80;93677.00;1757676;80;21061;-84
2021/06/03 01:27:11;;;;;;;4.15;2.58;;;;;;;7.06;88.87;93673.77;1777806;78;21129;-84
2021/06/03 01:29:47;;;;;;;11.33;3.72;;;;;;;6.97;89.09;93679.25;1775646;80;20999;-84
2021/06/03 01:32:15;;;;;;;3.10;2.47;;;;;;;6.90;89.29;93673.75;1775879;80;21002;-84
2021/06/03 01:34:43;;;;;;;3.25;2.37;;;;;;;6.89;89.54;93672.20;1775590;80;21043;-84
2021/06/03 01:37:10;;;;;;;7.10;3.33;;;;;;;6.89;89.70;93667.56;1775629;80;21540;-84
2021/06/03 01:39:36;;;;;;;6.65;2.58;;;;;;;6.92;89.51;93676.30;1775456;80;21795;-84
2021/06/03 01:42:04;;;;;;;4.90;2.37;;;;;;;6.91;89.37;93672.59;1775864;80;21113;-84
2021/06/03 01:44:33;;;;;;;5.67;2.92;;;;;;;6.86;89.43;93672.34;1774939;80;21540;-84
2021/06/03 01:47:03;;;;;;;8.25;4.85;;;;;;;6.80;89.61;93671.86;1774584;80;21086;-84
2021/06/03 01:49:32;;;;;;;7.70;4.80;;;;;;;6.81;89.95;93672.09;1756579;80;21606;-84
2021/06/03 01:52:01;;;;;;;11.73;5.78;;;;;;;6.86;89.93;93676.40;1787345;80;21133;-84
2021/06/03 01:54:30;;;;;;;11.53;5.72;;;;;;;6.88;89.88;93682.20;1785211;80;21070;-83
2021/06/03 01:56:59;;;;;;;10.45;6.12;;;;;;;6.90;89.91;93681.86;1786787;80;21085;-84
2021/06/03 01:59:25;;;;;;;10.63;5.35;;;;;;;6.90;89.90;93677.80;1761723;80;21085;-83
2021/06/03 02:01:53;;;;;;;10.65;5.03;;;;;;;6.93;89.92;93680.55;1786134;80;21010;-83
2021/06/03 02:04:20;;;;;;;5.35;3.98;;;;;;;6.97;89.80;93683.31;1786810;80;21184;-84
2021/06/03 02:06:48;;;;;;;4.72;2.22;;;;;;;6.97;89.57;93684.66;1786373;80;21559;-84
2021/06/03 02:09:15;;;;;;;4.55;3.05;;;;;;;6.90;89.15;93683.98;1786842;80;20962;-84
2021/06/03 02:11:46;;;;;;;7.33;3.05;;;;;;;6.82;89.15;93679.62;1786849;80;21428;-84
2021/06/03 02:14:21;;;;;;;7.95;3.83;;;;;;;6.81;89.47;93685.61;1793496;79;21501;-84
2021/06/03 02:16:56;;;;;;;4.45;3.30;;;;;;;6.85;89.35;93691.06;1783083;80;21196;-84
2021/06/03 02:19:44;;;;;;;5.60;3.08;;;;;;;6.87;89.21;93689.34;1796348;78;21006;-84
2021/06/03 02:22:10;;;;;;;5.37;2.27;;;;;;;6.84;89.14;93687.36;1797469;79;20979;-84
2021/06/03 02:24:39;;;;;;;5.45;2.52;;;;;;;6.87;89.08;93692.05;1752400;79;21006;-84
2021/06/03 02:27:06;;;;;;;3.92;2.60;;;;;;;6.89;88.92;93700.00;1797864;79;21634;-85
2021/06/03 02:29:35;;;;;;;5.12;3.00;;;;;;;6.90;88.91;93700.78;1785648;80;21087;-84
2021/06/03 02:32:06;;;;;;;7.67;2.70;;;;;;;6.88;88.72;93698.42;1762525;80;21107;-84
2021/06/03 02:34:39;;;;;;;4.50;2.77;;;;;;;6.86;88.87;93700.73;1831112;77;21022;-84
2021/06/03 02:37:09;;;;;;;5.08;2.67;;;;;;;6.89;88.91;93699.23;1832654;77;21583;-84
2021/06/03 02:39:36;;;;;;;6.45;3.15;;;;;;;6.92;88.65;93700.63;1795241;79;21099;-85
2021/06/03 02:42:08;;;;;;;3.42;2.58;;;;;;;6.91;88.57;93695.00;1759443;77;21754;-84
2021/06/03 02:44:37;;;;;;;3.37;2.20;;;;;;;6.93;88.46;93699.48;1830704;78;21098;-85
2021/06/03 02:47:04;;;;;;;2.55;2.35;;;;;;;6.96;88.29;93696.63;1783509;78;21441;-84
2021/06/03 02:49:31;;;;;;;3.67;3.02;;;;;;;6.95;88.23;93696.40;1796968;79;20953;-84
2021/06/03 02:52:03;;;;;;;7.85;4.53;;;;;;;6.92;88.29;93697.13;1803283;79;21601;-84
2021/06/03 02:54:29;;;;;;;5.55;3.25;;;;;;;6.85;88.50;93696.47;1793433;79;21164;-84
2021/06/03 02:56:56;;;;;;;5.80;4.00;;;;;;;6.79;88.56;93697.34;1810548;79;21021;-84
2021/06/03 02:59:23;;;;;;;5.45;3.80;;;;;;;6.77;88.96;93692.89;1777220;79;20971;-84
2021/06/03 03:01:50;;;;;;;6.47;4.28;;;;;;;6.78;89.12;93695.79;1774611;79;21059;-84
2021/06/03 03:04:17;;;;;;;5.53;4.75;;;;;;;6.77;89.02;93702.89;1795870;78;21042;-84
2021/06/03 03:06:44;;;;;;;8.25;4.50;;;;;;;6.76;89.30;93699.98;1826308;78;22005;-84
2021/06/03 03:09:11;;;;;;;10.05;4.80;;;;;;;6.80;89.47;93708.92;1794940;78;20936;-84
2021/06/03 03:11:38;;;;;;;5.53;3.95;;;;;;;6.83;89.37;93706.86;1840251;78;20999;-84
2021/06/03 03:14:06;;;;;;;5.87;4.45;;;;;;;6.83;89.38;93706.86;1802743;78;21007;-84
2021/06/03 03:16:35;;;;;;;6.42;4.20;;;;;;;6.83;89.54;93714.19;1820302;78;21028;-84
2021/06/03 03:19:03;;;;;;;6.85;4.50;;;;;;;6.80;89.63;93712.41;1823819;78;21101;-84
2021/06/03 03:21:31;;;;;;;8.58;4.20;;;;;;;6.80;89.70;93717.81;1793590;80;21042;-84
2021/06/03 03:23:58;;;;;;;9.18;4.10;;;;;;;6.81;89.51;93717.27;1812646;79;21031;-84
2021/06/03 03:26:26;;;;;;;7.85;4.55;;;;;;;6.78;89.46;93718.77;1846840;77;20999;-84
2021/06/03 03:28:53;;;;;;;7.75;4.15;;;;;;;6.78;89.45;93717.98;1800069;78;22122;-84
2021/06/03 03:31:19;;;;;;;7.15;4.62;;;;;;;6.77;89.39;93720.46;1784965;79;21094;-84
2021/06/03 03:33:47;;;;;;;6.12;4.17;;;;;;;6.75;89.51;93716.78;1775934;80;21041;-84
2021/06/03 03:36:13;;;;;;;6.08;4.20;;;;;;;6.74;89.85;93711.75;1752500;81;21006;-83
2021/06/03 03:38:42;;;;;;;5.28;3.90;;;;;;;6.79;89.82;93712.78;1843666;77;21658;-84
2021/06/03 03:41:08;;;;;;;5.97;3.77;;;;;;;6.84;89.70;93718.44;1777573;77;21001;-85
2021/06/03 03:43:35;;;;;;;6.30;3.70;;;;;;;6.83;89.78;93714.97;1779930;79;21063;-85
2021/06/03 03:46:02;;;;;;;5.25;4.10;;;;;;;6.87;90.05;93721.20;1803982;78;20952;-85
2021/06/03 03:48:29;;;;;;;5.60;4.20;;;;;;;6.87;90.02;93728.53;1774817;80;21425;-85
2021/06/03 03:50:56;;;;;;;5.80;4.12;;;;;;;6.85;90.21;93720.80;1784775;80;21023;-85
2021/06/03 03:53:25;;;;;;;6.58;4.30;;;;;;;6.86;90.26;93720.22;1775112;79;21049;-85
2021/06/03 03:55:52;;;;;;;4.47;3.87;;;;;;;6.88;90.23;93727.38;1765357;79;21081;-86
2021/06/03 03:58:19;;;;;;;6.80;3.98;;;;;;;6.90;89.88;93725.88;1767061;79;21112;-85
2021/06/03 04:00:46;;;;;;;4.85;3.77;;;;;;;6.89;89.71;93725.69;1816826;79;21549;-85
2021/06/03 04:03:17;;;;;;;5.78;3.75;;;;;;;6.92;89.80;93727.66;1811701;79;21024;-84
2021/06/03 04:05:45;;;;;;;5.30;4.22;;;;;;;6.96;89.81;93733.91;1845292;77;21037;-84
2021/06/03 04:08:14;;;;;;;7.62;3.60;;;;;;;7.00;89.57;93736.09;1829068;76;21139;-85
2021/06/03 04:10:42;;;;;;;6.50;4.22;;;;;;;7.04;89.54;93734.78;1817505;77;20938;-84
2021/06/03 04:13:11;;;;;;;6.12;3.98;;;;;;;7.09;89.63;93732.33;1797753;79;21021;-82
2021/06/03 04:15:40;;;;;;;5.60;3.90;;;;;;;7.21;90.22;93740.22;1797653;78;20970;-83
2021/06/03 04:18:07;;;;;;;5.12;3.25;;;;;;;7.34;89.91;93744.28;1799437;79;21041;-83
2021/06/03 04:20:34;;;;;;;9.75;4.80;;;;;;;7.40;89.22;93746.85;1798591;78;21925;-83
2021/06/03 04:23:02;;;;;;;4.03;3.40;;;;;;;7.43;88.92;93746.13;1784820;79;21035;-83
2021/06/03 04:25:32;;;;;;;4.40;3.40;;;;;;;7.47;88.76;93743.47;1810133;79;20923;-83
2021/06/03 04:27:59;;;;;;;8.00;3.00;;;;;;;7.50;88.83;93744.88;1811391;79;21137;-83
2021/06/03 04:30:26;;;;;;;6.20;3.25;;;;;;;7.53;88.34;93744.14;1809205;79;21017;-83
2021/06/03 04:32:53;;;;;;;5.05;2.95;;;;;;;7.58;88.04;93747.09;1751054;79;21111;-83
2021/06/03 04:35:21;;;;;;;5.22;3.42;;;;;;;7.66;87.70;93745.25;1727870;81;21528;-83
2021/06/03 04:37:49;;;;;;;8.63;4.28;;;;;;;7.72;87.90;93749.98;1780043;77;21006;-83
2021/06/03 04:40:17;;;;;;;6.95;3.52;;;;;;;7.79;88.19;93749.29;1845383;77;21087;-83
2021/06/03 04:42:44;;;;;;;5.37;3.80;;;;;;;7.82;88.46;93751.23;1823398;78;21082;-83
2021/06/03 04:45:13;;;;;;;5.42;3.42;;;;;;;7.88;88.30;93751.70;1815463;79;21085;-84
2021/06/03 04:47:43;;;;;;;7.62;4.95;;;;;;;7.92;88.41;93748.45;1812975;79;21079;-84
2021/06/03 04:50:12;;;;;;;4.95;4.03;;;;;;;7.97;88.07;93746.77;1805697;79;21084;-83
2021/06/03 04:52:39;;;;;;;6.28;4.03;;;;;;;7.99;87.93;93745.25;1783303;79;21504;-84
2021/06/03 04:55:15;;;;;;;7.65;4.12;;;;;;;8.03;87.23;93753.42;1751756;82;21038;-84
2021/06/03 04:57:42;;;;;;;5.00;4.20;;;;;;;8.07;87.04;93754.23;1752046;82;21115;-84
2021/06/03 05:00:23;;;;;;;6.30;4.37;;;;;;;8.09;87.43;93749.23;1753717;81;21583;-83
2021/06/03 05:02:50;;;;;;;8.20;5.22;;;;;;;8.13;87.58;93755.47;1812607;78;21087;-84
2021/06/03 05:05:16;;;;;;;5.58;4.28;;;;;;;8.16;87.54;93753.38;1778212;80;21003;-85
2021/06/03 05:07:43;;;;;;;5.50;4.40;;;;;;;8.22;87.41;93760.00;1766527;80;20958;-85
2021/06/03 05:10:10;;;;;;;6.05;3.80;;;;;;;8.32;86.90;93762.62;1755167;80;21477;-85
2021/06/03 05:12:37;;;;;;;6.25;4.10;;;;;;;8.40;86.03;93763.51;1778360;80;21579;-85
2021/06/03 05:15:05;;;;;;;7.72;4.20;;;;;;;8.46;85.58;93766.06;1756463;79;21094;-85
2021/06/03 05:17:34;;;;;;;5.60;3.98;;;;;;;8.55;85.92;93765.78;1815845;77;21009;-86
2021/06/03 05:20:07;;;;;;;4.03;3.60;;;;;;;8.64;85.83;93768.95;1817810;77;20995;-84
2021/06/03 05:22:36;;;;;;;5.60;3.75;;;;;;;8.72;85.36;93767.85;1777484;80;21370;-84
2021/06/03 05:25:06;;;;;;;4.72;3.90;;;;;;;8.79;85.15;93767.91;1754356;81;21532;-84
2021/06/03 05:27:33;;;;;;;7.45;3.92;;;;;;;8.90;85.05;93769.36;1755310;81;21062;-84
2021/06/03 05:29:59;;;;;;;11.28;4.70;;;;;;;8.99;84.64;93776.62;1814779;78;21181;-85
2021/06/03 05:32:26;;;;;;;4.70;4.10;;;;;;;9.03;84.35;93776.62;1816598;78;21087;-85
2021/06/03 05:34:53;;;;;;;6.55;4.35;;;;;;;9.09;84.44;93779.19;1823557;77;21125;-84
2021/06/03 05:37:19;;;;;;;5.47;3.75;;;;;;;9.17;84.42;93778.08;1835283;77;21477;-85
2021/06/03 05:39:46;;;;;;;5.60;4.22;;;;;;;9.26;84.20;93769.63;1747021;82;21022;-84
2021/06/03 05:42:12;;;;;;;6.80;3.95;;;;;;;9.37;84.26;93779.98;1767395;81;21038;-84
2021/06/03 05:44:39;;;;;;;5.75;3.92;;;;;;;9.46;84.25;93779.83;1821712;77;21041;-84
2021/06/03 05:47:05;;;;;;;8.48;4.08;;;;;;;9.59;83.78;93774.08;1833354;77;21134;-83
2021/06/03 05:49:33;;;;;;;4.72;4.22;;;;;;;9.78;84.36;93775.72;1811663;79;20999;-87
2021/06/03 05:52:02;;;;;;;5.37;4.10;;;;;;;10.13;84.38;93776.47;1800986;79;21049;-84
2021/06/03 05:54:29;;;;;;;4.47;3.77;;;;;;;10.55;82.80;93777.77;1762638;79;21094;-85
2021/06/03 05:56:56;;;;;;;4.03;3.60;;;;;;;10.86;81.05;93776.24;1824071;76;21458;-85
2021/06/03 05:59:23;;;;;;;5.75;4.42;;;;;;;11.04;79.33;93773.53;1826013;77;21122;-84
2021/06/03 06:01:53;;;;;;;7.53;5.20;;;;;;;11.15;78.33;93777.80;1805693;79;21085;-82
2021/06/03 06:06:07;;;;;;;8.73;4.17;;;;;;;11.20;77.25;93782.08;1803859;79;21119;-83
2021/06/03 06:06:47;;;;;;;5.05;4.47;;;;;;;11.21;76.44;93779.56;1789306;80;21032;-83
2021/06/03 06:09:15;;;;;;;6.78;4.37;;;;;;;11.22;76.28;93780.34;1782769;79;21092;-83
2021/06/03 06:11:44;;;;;;;7.05;3.65;;;;;;;11.19;76.16;93781.30;1804472;79;21130;-84
2021/06/03 06:14:12;;;;;;;5.65;3.25;;;;;;;11.18;76.48;93784.42;1811070;79;21087;-84
2021/06/03 06:16:40;;;;;;;5.47;3.15;;;;;;;11.17;76.87;93788.32;1807828;76;21002;-84
2021/06/03 06:19:10;;;;;;;6.55;3.92;;;;;;;11.14;76.16;93785.78;1821012;78;21580;-83
2021/06/03 06:21:38;;;;;;;4.92;3.27;;;;;;;11.10;75.96;93783.65;1778924;78;21096;-83
2021/06/03 06:24:07;;;;;;;5.15;2.95;;;;;;;11.05;75.08;93782.66;1731517;80;21093;-84
2021/06/03 06:26:35;;;;;;;6.53;3.87;;;;;;;11.03;74.33;93786.95;1743533;81;21022;-83
2021/06/03 06:29:03;;;;;;;4.97;3.83;;;;;;;11.04;73.81;93787.14;1779855;79;21647;-85
2021/06/03 06:31:30;;;;;;;8.65;5.70;;;;;;;11.05;74.06;93787.33;1798154;79;21105;-84
2021/06/03 06:33:57;;;;;;;8.90;4.92;;;;;;;11.11;74.51;93790.64;1758179;81;21074;-84
2021/06/03 06:36:24;;;;;;;6.78;4.03;;;;;;;11.24;74.54;93799.17;1727784;82;21936;-83
2021/06/03 06:38:51;;;;;;;4.95;3.58;;;;;;;11.34;74.16;93795.68;1699862;83;21608;-83
2021/06/03 06:41:18;;;;;;;5.47;3.70;;;;;;;11.41;73.71;93794.91;1691153;84;21071;-82
2021/06/03 06:43:44;;;;;;;15.83;9.38;;;;;;;11.49;73.95;93798.39;1777503;79;21223;-82
2021/06/03 06:46:11;;;;;;;13.20;7.30;;;;;;;11.58;73.55;93800.89;1776530;80;21026;-84
2021/06/03 06:48:38;;;;;;;7.87;3.92;;;;;;;11.68;73.47;93798.73;1749280;79;21284;-83
2021/06/03 06:51:05;;;;;;;4.35;3.58;;;;;;;11.78;73.01;93796.40;1722755;81;21442;-84
2021/06/03 06:53:31;;;;;;;4.72;3.72;;;;;;;11.89;72.26;93797.17;1774898;77;21094;-83
2021/06/03 06:55:59;;;;;;;8.93;3.72;;;;;;;11.99;70.99;93799.66;1768128;80;21059;-83
2021/06/03 06:58:26;;;;;;;6.17;3.35;;;;;;;12.11;69.87;93802.75;1771893;80;21415;-84
2021/06/03 07:00:52;;;;;;;5.28;3.00;;;;;;;12.25;68.48;93801.12;1739355;80;21487;-83
2021/06/03 07:03:19;;;;;;;3.58;2.80;;;;;;;12.35;66.67;93796.99;1766884;80;21038;-82
2021/06/03 07:05:46;;;;;;;2.67;2.30;;;;;;;12.44;65.88;93799.88;1791244;79;21644;-83
2021/06/03 07:08:14;;;;;;;4.47;3.00;;;;;;;12.50;65.90;93801.02;1799297;79;21065;-82
2021/06/03 07:10:41;;;;;;;4.08;2.45;;;;;;;12.55;64.71;93803.32;1781203;80;21563;-83
2021/06/03 07:13:08;;;;;;;6.87;2.83;;;;;;;12.58;64.09;93801.94;1779241;79;21142;-82
2021/06/03 07:15:34;;;;;;;3.67;2.77;;;;;;;12.61;62.83;93801.15;1806884;78;21017;-82
2021/06/03 07:18:01;;;;;;;5.75;2.95;;;;;;;12.66;63.61;93803.27;1802137;79;21512;-81
2021/06/03 07:20:27;;;;;;;3.00;2.70;;;;;;;12.70;64.04;93809.47;1792982;79;21338;-83
2021/06/03 07:22:56;;;;;;;6.53;2.42;;;;;;;12.73;63.26;93812.78;1792730;79;21035;-83
2021/06/03 07:25:24;;;;;;;4.08;3.15;;;;;;;12.78;63.69;93809.62;1787482;79;21125;-81
2021/06/03 07:27:50;;;;;;;7.78;2.77;;;;;;;12.85;62.65;93813.67;1785155;80;21080;-82
2021/06/03 07:30:19;;;;;;;7.78;2.75;;;;;;;12.94;63.24;93816.75;1790180;78;21609;-82
2021/06/03 07:32:46;;;;;;;4.58;3.20;;;;;;;13.00;63.93;93817.86;1835483;77;21513;-80
2021/06/03 07:35:14;;;;;;;5.25;2.95;;;;;;;13.06;63.81;93813.53;1815925;78;21048;-83
2021/06/03 07:40:11;;;;;;;6.72;2.83;;;;;;;13.19;62.61;93813.05;1820023;78;21079;-81
2021/06/03 07:42:38;;;;;;;2.80;2.60;;;;;;;13.25;62.01;93810.89;1847353;77;20974;-83
2021/06/03 07:45:09;;;;;;;3.87;2.55;;;;;;;13.32;62.08;93810.83;1856939;77;20986;-82
2021/06/03 07:47:36;;;;;;;5.58;2.83;;;;;;;13.39;62.15;93816.03;1815692;78;21029;-82
2021/06/03 07:50:04;;;;;;;4.50;2.58;;;;;;;13.45;61.02;93804.28;1778237;80;21151;-83
2021/06/03 07:52:30;;;;;;;5.75;3.42;;;;;;;13.51;60.66;93809.50;1777462;80;21563;-82
2021/06/03 07:54:57;;;;;;;2.47;2.12;;;;;;;13.60;59.82;93813.13;1778663;80;20990;-83
2021/06/03 07:57:23;;;;;;;7.25;2.92;;;;;;;13.66;59.00;93808.78;1777807;80;21034;-81
2021/06/03 07:59:50;;;;;;;3.33;2.20;;;;;;;13.69;57.82;93809.91;1777091;80;21108;-84
2021/06/03 08:02:17;;;;;;;5.00;2.45;;;;;;;13.71;57.04;93808.93;1777260;80;21106;-83
2021/06/03 08:04:43;;;;;;;4.20;2.52;;;;;;;13.77;58.09;93805.36;1776673;80;21073;-85
2021/06/03 08:07:12;;;;;;;6.03;2.33;;;;;;;13.87;56.95;93815.20;1786902;79;21167;-81
2021/06/03 08:09:41;;;;;;;2.62;2.42;;;;;;;13.93;55.66;93805.39;1801672;79;21279;-83
2021/06/03 08:12:08;;;;;;;5.50;2.60;;;;;;;14.00;56.94;93810.20;1775055;78;21061;-82
2021/06/03 08:14:34;;;;;;;3.27;2.85;;;;;;;14.13;56.74;93808.30;1744851;80;21123;-82
2021/06/03 08:17:01;;;;;;;3.47;2.35;;;;;;;14.27;57.75;93806.77;1769854;79;21014;-81
2021/06/03 08:19:29;;;;;;;5.05;2.65;;;;;;;14.42;54.65;93799.94;1805689;79;21018;-82
2021/06/03 08:21:55;;;;;;;2.72;2.33;;;;;;;14.50;54.94;93804.76;1763146;79;21072;-82
2021/06/03 08:24:22;;;;;;;2.90;2.65;;;;;;;14.56;54.84;93804.50;1753515;80;21097;-82
2021/06/03 08:26:53;;;;;;;5.47;2.37;;;;;;;14.57;55.08;93803.30;1753928;81;21084;-83
2021/06/03 08:29:20;;;;;;;4.10;2.12;;;;;;;14.55;54.87;93803.72;1762633;79;21829;-84
2021/06/03 08:31:48;;;;;;;4.25;2.47;;;;;;;14.46;53.68;93803.41;1813449;79;21630;-84
2021/06/03 08:34:16;;;;;;;3.27;2.20;;;;;;;14.36;54.81;93804.30;1811699;79;21284;-83
2021/06/03 08:36:43;;;;;;;3.10;2.30;;;;;;;14.26;53.94;93802.49;1778226;80;21052;-82
2021/06/03 08:39:09;;;;;;;6.33;2.67;;;;;;;14.13;53.51;93809.06;1810121;79;21098;-84
2021/06/03 08:41:41;;;;;;;5.05;2.30;;;;;;;14.02;52.79;93808.41;1810851;79;21596;-82
2021/06/03 08:44:09;;;;;;;5.47;2.70;;;;;;;13.94;53.87;93816.50;1810854;79;21130;-83
2021/06/03 08:46:35;;;;;;;2.52;1.80;;;;;;;13.88;54.51;93812.09;1810226;79;21198;-85
2021/06/03 08:49:04;;;;;;;4.60;2.47;;;;;;;13.84;54.37;93814.86;1810358;79;21659;-85
2021/06/03 08:51:31;;;;;;;9.55;4.08;;;;;;;13.81;53.77;93817.63;1764442;80;21130;-83
2021/06/03 08:53:57;;;;;;;4.33;2.70;;;;;;;13.78;53.54;93819.20;1779420;80;21032;-85
2021/06/03 08:56:24;;;;;;;2.77;1.87;;;;;;;13.76;53.79;93816.08;1786072;80;21021;-84
2021/06/03 08:58:56;;;;;;;4.17;2.40;;;;;;;13.75;49.17;93824.11;1769933;80;21466;-86
2021/06/03 09:01:25;;;;;;;7.83;2.52;;;;;;;13.72;50.97;93822.17;1767025;80;21019;-85
2021/06/03 09:03:51;;;;;;;5.22;2.10;;;;;;;13.74;53.44;93810.27;1769933;81;21161;-82
2021/06/03 09:06:18;;;;;;;2.85;1.82;;;;;;;13.81;51.56;93818.98;1751543;80;21101;-85
2021/06/03 09:08:58;;;;;;;4.20;1.72;;;;;;;13.82;51.75;93819.17;1781038;79;21412;-79
2021/06/03 09:11:29;;;;;;;5.60;2.17;;;;;;;13.81;51.40;93817.63;1813403;79;20986;-84
2021/06/03 09:14:03;;;;;;;3.70;1.87;;;;;;;13.74;49.93;93825.30;1790850;80;20990;-86
2021/06/03 09:16:30;;;;;;;5.45;2.45;;;;;;;13.68;49.21;93817.34;1785810;80;21104;-85
2021/06/03 09:19:13;;;;;;;5.08;2.20;;;;;;;13.68;51.10;93813.23;1786225;80;21037;-86
2021/06/03 09:21:47;;;;;;;3.77;2.30;;;;;;;13.78;52.12;93810.23;1786270;80;21096;-84
2021/06/03 09:24:20;;;;;;;2.65;1.92;;;;;;;13.95;51.59;93807.12;1787012;80;21535;-84
2021/06/03 09:27:01;;;;;;;3.90;1.82;;;;;;;14.12;50.43;93807.52;1786528;80;21113;-83
2021/06/03 09:29:33;;;;;;;4.97;1.95;;;;;;;14.20;49.90;93804.89;1786267;78;21771;-83
2021/06/03 09:32:08;;;;;;;6.75;2.10;;;;;;;14.26;50.27;93806.00;1786499;80;21668;-84
2021/06/03 09:34:37;;;;;;;7.33;2.12;;;;;;;14.33;49.33;93797.71;1786663;80;21018;-83
2021/06/03 09:37:05;;;;;;;3.90;2.00;;;;;;;14.37;50.38;93796.30;1786207;80;21022;-84
2021/06/03 09:39:36;;;;;;;6.95;2.55;;;;;;;14.37;50.43;93800.41;1785324;80;21065;-83
2021/06/03 09:42:08;;;;;;;4.55;1.80;;;;;;;14.34;50.96;93797.88;1785146;80;21073;-84
2021/06/03 09:44:50;;;;;;;7.10;2.30;;;;;;;14.33;50.69;93806.52;1784980;80;21034;-83
2021/06/03 09:47:19;;;;;;;3.00;2.00;;;;;;;14.30;50.18;93806.73;1785726;80;21010;-84
2021/06/03 09:49:55;;;;;;;3.87;2.00;;;;;;;14.27;50.82;93814.38;1786569;80;21081;-84
2021/06/03 09:52:27;;;;;;;;;;;;;;;14.21;50.17;93811.90;1788897;80;21040;-85
2021/06/03 09:54:57;;;;;;;4.53;2.17;;;;;;;14.16;49.68;93819.80;1785566;80;21623;-83
2021/06/03 09:57:33;;;;;;;4.35;2.17;;;;;;;14.11;50.58;93815.55;1786259;80;21074;-83
2021/06/03 10:00:08;;;;;;;7.97;2.45;;;;;;;14.11;50.20;93818.88;1785402;80;21121;-85
2021/06/03 10:02:43;;;;;;;5.62;2.80;;;;;;;14.11;49.51;93817.52;1785797;80;21041;-82
2021/06/03 10:05:22;;;;;;;2.75;2.05;;;;;;;14.12;49.14;93818.46;1785162;80;21042;-84
2021/06/03 10:08:02;;;;;;;5.08;2.42;;;;;;;14.14;49.40;93820.21;1784315;80;21094;-82
2021/06/03 10:10:40;;;;;;;5.42;2.30;;;;;;;14.15;49.67;93817.66;1785246;80;21031;-83
2021/06/03 10:13:07;;;;;;;9.40;2.65;;;;;;;14.13;48.90;93824.11;1786350;80;21021;-83
2021/06/03 10:15:40;;;;;;;9.40;2.70;;;;;;;14.03;48.50;93825.79;1786547;80;21150;-88
2021/06/03 10:18:18;;;;;;;3.77;2.00;;;;;;;13.94;49.51;93828.80;1786544;80;26967;-82
2021/06/03 10:20:48;;;;;;;2.35;2.10;;;;;;;13.88;49.45;93827.13;1786795;80;21030;-82
2021/06/03 10:23:28;;;;;;;5.10;1.77;;;;;;;13.84;47.89;93820.33;1786938;80;21549;-84
2021/06/03 10:26:01;;;;;;;6.62;2.10;;;;;;;13.81;49.82;93821.72;1786585;80;21025;-83
2021/06/03 10:28:29;;;;;;;3.22;2.27;;;;;;;13.81;49.58;93823.86;1786671;80;21002;-82
2021/06/03 10:30:58;;;;;;;3.12;1.90;;;;;;;13.84;50.29;93819.52;1787426;80;21038;-83
2021/06/03 10:33:27;;;;;;;2.10;2.00;;;;;;;13.90;50.03;93825.34;1785443;80;21127;-84
2021/06/03 10:35:57;;;;;;;4.42;2.05;;;;;;;13.91;51.33;93822.78;1787508;80;21425;-82
2021/06/03 10:38:24;;;;;;;3.92;2.22;;;;;;;13.89;51.46;93814.23;1786816;80;21104;-83
2021/06/03 10:40:57;;;;;;;2.20;2.00;;;;;;;13.87;51.66;93822.05;1785549;80;21019;-82
2021/06/03 10:43:24;;;;;;;3.60;2.08;;;;;;;13.85;51.91;93821.87;1785643;79;20987;-83
2021/06/03 10:45:51;;;;;;;4.60;2.40;;;;;;;13.84;52.38;93823.05;1786463;80;21118;-79
2021/06/03 10:48:17;;;;;;;5.45;2.83;;;;;;;13.83;50.88;93835.15;1786033;80;21587;-83
2021/06/03 10:50:48;;;;;;;6.85;1.98;;;;;;;13.82;49.91;93824.63;1786738;80;21022;-85
2021/06/03 10:53:22;;;;;;;3.55;1.92;;;;;;;13.82;47.96;93824.03;1790999;80;21051;-81
2021/06/03 10:55:54;;;;;;;1.80;1.70;;;;;;;13.86;49.80;93828.11;1732177;79;20984;-79
2021/06/03 10:58:32;;;;;;;1.80;1.65;;;;;;;13.92;50.44;93819.66;1798359;77;21094;-82
2021/06/03 11:01:11;;;;;;;6.35;2.02;;;;;;;13.99;51.35;93823.69;1810243;77;21006;-82
2021/06/03 11:04:01;;;;;;;4.80;2.85;;;;;;;14.05;50.50;93820.67;1770987;80;21169;-83
2021/06/03 11:06:30;;;;;;;2.95;2.65;;;;;;;14.14;49.02;93822.95;1771790;80;21285;-84
2021/06/03 11:09:02;;;;;;;5.37;2.50;;;;;;;14.20;48.72;93819.93;1774524;80;21023;-83
2021/06/03 11:11:37;;;;;;;4.05;2.35;;;;;;;14.26;49.06;93821.05;1741393;82;21062;-84
2021/06/03 11:14:18;;;;;;;3.65;2.00;;;;;;;14.30;49.01;93828.61;1775120;80;21102;-83
2021/06/03 11:16:53;;;;;;;3.02;1.87;;;;;;;14.32;48.61;93828.19;1758114;80;21034;-82
2021/06/03 11:19:27;;;;;;;9.10;2.25;;;;;;;14.31;49.19;93832.89;1772051;80;21080;-81
2021/06/03 11:21:57;;;;;;;3.37;1.90;;;;;;;14.28;49.30;93838.40;1798412;78;21033;-85
2021/06/03 11:24:31;;;;;;;4.42;2.12;;;;;;;14.19;46.72;93838.89;1817838;78;20978;-87
2021/06/03 11:27:08;;;;;;;5.12;2.33;;;;;;;14.08;47.08;93842.34;1811576;78;21041;-84
2021/06/03 11:29:41;;;;;;;3.77;2.02;;;;;;;14.02;47.47;93843.95;1772991;81;28228;-84
2021/06/03 11:32:15;;;;;;;4.15;1.75;;;;;;;14.00;48.63;93841.64;1773276;81;20991;-83
2021/06/03 11:34:46;;;;;;;6.45;2.22;;;;;;;14.03;49.95;93839.46;1772077;81;21074;-84
2021/06/03 11:37:40;;;;;;;3.25;2.80;;;;;;;14.07;48.08;93843.53;1775758;80;21810;-85
2021/06/03 11:40:13;;;;;;;3.30;1.90;;;;;;;14.11;48.87;93844.27;1777315;80;21018;-86
2021/06/03 11:42:46;;;;;;;4.97;2.00;;;;;;;14.15;47.34;93843.63;1776304;80;21078;-84
2021/06/03 11:45:31;;;;;;;5.95;2.05;;;;;;;14.18;47.02;93841.45;1774915;80;21085;-81
2021/06/03 11:48:05;;;;;;;5.83;3.10;;;;;;;14.21;48.15;93841.98;1774692;80;21112;-84
2021/06/03 11:50:36;;;;;;;6.15;3.30;;;;;;;14.24;47.45;93840.41;1778505;80;21568;-86